Allendale, Michigan
Current Conditions -  °F | °C
As of 11:53 PM on Saturday 25 Oct 2014 (Local Time) from KBIV Reporting Station
Clear Clear  
Wind Chill: 14°   Ceiling: Unl
Heat Index: 14°   Visibility: 10mi
Dew Point:   Wind: 16mph
Humidity: 47%   Direction: 300°WNW
Pressure: 29.91"   Gusts: 25mph
Location:  42.97°N, 85.95°W
Report Text: KBIV 260353Z AUTO 30014G22KT 10SM CLR 14/03 A2991 RMK AO2 SLP126 T01440033
Loading
Personal Weather Stations






























Interactive Weather Map
Tropical Storm Tracking
New forecast layout! Learn more

10-Day Weather Forecast

Advertisements
Track Severe Weather on mobile